createdAt,value
2023-04-26T00:00:38.567Z,101014.50
2023-04-26T00:03:10.827Z,101013.25
2023-04-26T00:05:41.070Z,100997.13
2023-04-26T00:08:11.938Z,100990.34
2023-04-26T00:10:42.901Z,101013.16
2023-04-26T00:13:12.887Z,101012.97
2023-04-26T00:15:46.038Z,101013.69
2023-04-26T00:18:16.311Z,101019.38
2023-04-26T00:20:48.787Z,101012.94
2023-04-26T00:23:18.993Z,101006.88
2023-04-26T00:25:49.127Z,101005.97
2023-04-26T00:28:19.506Z,100990.78
2023-04-26T00:30:54.042Z,101001.88
2023-04-26T00:33:25.211Z,101002.94
2023-04-26T00:35:56.763Z,100996.88
2023-04-26T00:38:26.963Z,101003.09
2023-04-26T00:40:56.989Z,101006.09
2023-04-26T00:43:27.034Z,101007.91
2023-04-26T00:45:59.977Z,100997.94
2023-04-26T00:48:30.755Z,100988.91
2023-04-26T00:51:01.630Z,101008.59
2023-04-26T00:53:32.647Z,101000.22
2023-04-26T00:56:03.625Z,101019.28
2023-04-26T00:58:34.935Z,101014.06
2023-04-26T01:01:08.217Z,101009.63
2023-04-26T01:03:40.833Z,101025.78
2023-04-26T01:06:15.362Z,101010.94
2023-04-26T01:08:47.412Z,101014.66
2023-04-26T01:11:18.377Z,101020.03
2023-04-26T01:13:52.165Z,101018.25
2023-04-26T01:16:31.296Z,100990.53
2023-04-26T01:19:02.379Z,101009.44
2023-04-26T01:21:33.507Z,101014.47
2023-04-26T01:24:09.464Z,101018.56
2023-04-26T01:26:46.113Z,101018.88
2023-04-26T01:29:22.054Z,101008.31
2023-04-26T01:31:52.867Z,101021.16
2023-04-26T01:34:27.222Z,101022.25
2023-04-26T01:37:08.385Z,101023.84
2023-04-26T01:39:43.124Z,101027.56
2023-04-26T01:42:14.630Z,101026.28
2023-04-26T01:44:48.268Z,101025.38
2023-04-26T01:47:18.500Z,101032.47
2023-04-26T01:49:49.046Z,101023.31
2023-04-26T01:52:20.812Z,101035.28
2023-04-26T01:54:53.542Z,101029.38
2023-04-26T01:57:26.506Z,101036.00
2023-04-26T01:59:57.157Z,101025.63
2023-04-26T02:02:29.445Z,101036.13
2023-04-26T02:05:00.099Z,101033.22
2023-04-26T02:07:30.403Z,101034.81
2023-04-26T02:10:03.680Z,101029.94
2023-04-26T02:12:37.603Z,101032.97
2023-04-26T02:15:08.870Z,101033.47
2023-04-26T02:17:40.136Z,101032.38
2023-04-26T02:20:15.753Z,101030.78
2023-04-26T02:22:53.046Z,101029.28
2023-04-26T02:25:25.752Z,101033.00
2023-04-26T02:27:57.307Z,101039.16
2023-04-26T02:30:30.652Z,101037.19
2023-04-26T02:33:01.380Z,101039.28
2023-04-26T02:35:32.745Z,101041.41
2023-04-26T02:38:02.852Z,101034.81
2023-04-26T02:40:36.011Z,101038.00
2023-04-26T02:43:06.690Z,101042.28
2023-04-26T02:45:37.753Z,101036.53
2023-04-26T02:48:09.158Z,101039.22
2023-04-26T02:50:39.569Z,101039.22
2023-04-26T02:53:09.615Z,101031.03
2023-04-26T02:55:44.925Z,101027.69
2023-04-26T02:58:14.994Z,101033.34
2023-04-26T03:00:50.074Z,101030.16
2023-04-26T03:03:20.598Z,101034.44
2023-04-26T03:06:09.025Z,101027.69
2023-04-26T03:08:39.248Z,101028.38
2023-04-26T03:11:14.016Z,101033.22
2023-04-26T03:13:44.314Z,101034.81
2023-04-26T03:16:16.518Z,101027.69
2023-04-26T03:18:47.630Z,101035.16
2023-04-26T03:21:18.424Z,101032.06
2023-04-26T03:23:52.019Z,101035.63
2023-04-26T03:26:24.680Z,101032.06
2023-04-26T03:28:56.025Z,101032.97
2023-04-26T03:31:27.714Z,101033.81
2023-04-26T03:33:58.561Z,101019.22
2023-04-26T03:36:28.731Z,101026.19
2023-04-26T03:38:59.525Z,101024.41
2023-04-26T03:41:33.432Z,101033.94
2023-04-26T03:44:08.362Z,101009.13
2023-04-26T03:46:38.656Z,101009.53
2023-04-26T03:49:09.533Z,101027.41
2023-04-26T03:51:39.793Z,101033.47
2023-04-26T03:54:11.350Z,101043.19
2023-04-26T03:56:44.016Z,101031.69
2023-04-26T03:59:15.529Z,101035.97
2023-04-26T04:01:46.348Z,101035.25
2023-04-26T04:04:16.841Z,101032.38
2023-04-26T04:06:48.077Z,101024.41
2023-04-26T04:09:21.548Z,101030.38
2023-04-26T04:11:55.417Z,101042.13
2023-04-26T04:14:28.991Z,101036.25
2023-04-26T04:17:03.462Z,101044.97
2023-04-26T04:19:33.997Z,101034.53
2023-04-26T04:22:06.305Z,101031.75
2023-04-26T04:24:40.053Z,101021.28
2023-04-26T04:27:12.702Z,101039.78
2023-04-26T04:29:44.306Z,101035.56
2023-04-26T04:32:17.479Z,101046.19
2023-04-26T04:34:49.493Z,101042.38
2023-04-26T04:37:23.041Z,101046.31
2023-04-26T04:39:53.535Z,101045.69
2023-04-26T04:42:27.454Z,101051.94
2023-04-26T04:45:00.093Z,101052.84
2023-04-26T04:47:34.340Z,101053.94
2023-04-26T04:50:07.241Z,101056.63
2023-04-26T04:52:39.886Z,101053.28
2023-04-26T04:55:10.476Z,101052.97
2023-04-26T04:57:44.880Z,101058.34
2023-04-26T05:00:17.028Z,101044.63
2023-04-26T05:02:51.585Z,101049.94
2023-04-26T05:05:21.996Z,101056.53
2023-04-26T05:07:54.546Z,101044.41
2023-04-26T05:10:24.654Z,101065.56
2023-04-26T05:13:06.959Z,101063.84
2023-04-26T05:15:41.388Z,101064.03
2023-04-26T05:18:11.635Z,101072.72
2023-04-26T05:20:42.186Z,101053.09
2023-04-26T05:23:13.072Z,101073.31
2023-04-26T05:25:43.271Z,101065.50
2023-04-26T05:28:51.264Z,101076.06
2023-04-26T05:31:36.133Z,101070.81
2023-04-26T05:34:09.270Z,101064.63
2023-04-26T05:36:43.876Z,101040.78
2023-04-26T05:39:15.294Z,101061.03
2023-04-26T05:41:46.591Z,101060.44
2023-04-26T05:44:19.559Z,101065.97
2023-04-26T05:46:53.018Z,101065.66
2023-04-26T05:49:23.716Z,101067.19
2023-04-26T05:51:56.324Z,101068.09
2023-04-26T05:54:26.504Z,101078.19
2023-04-26T05:56:58.450Z,101070.84
2023-04-26T05:59:33.570Z,101065.59
2023-04-26T06:02:05.034Z,101064.88
2023-04-26T06:04:35.311Z,101068.31
2023-04-26T06:07:14.588Z,101063.75
2023-04-26T06:09:44.604Z,101076.63
2023-04-26T06:12:14.880Z,101071.16
2023-04-26T06:14:50.407Z,101078.16
2023-04-26T06:17:26.936Z,101079.56
2023-04-26T06:19:57.328Z,101073.75
2023-04-26T06:22:28.795Z,101083.88
2023-04-26T06:24:59.038Z,101077.50
2023-04-26T06:27:31.095Z,101080.19
2023-04-26T06:30:05.159Z,101072.91
2023-04-26T06:32:38.241Z,101086.50
2023-04-26T06:35:09.626Z,101092.72
2023-04-26T06:37:40.895Z,101095.06
2023-04-26T06:40:22.459Z,101087.03
2023-04-26T06:42:55.834Z,101090.75
2023-04-26T06:45:51.258Z,101096.22
2023-04-26T06:48:23.260Z,101089.28
2023-04-26T06:50:57.296Z,101097.72
2023-04-26T06:53:27.691Z,101085.31
2023-04-26T06:56:01.394Z,101096.41
2023-04-26T06:58:31.805Z,101096.56
2023-04-26T07:01:06.560Z,101092.44
2023-04-26T07:03:37.423Z,101097.91
2023-04-26T07:06:08.119Z,101104.03
2023-04-26T07:08:39.246Z,101104.53
2023-04-26T07:11:16.163Z,101092.41
2023-04-26T07:13:46.691Z,101109.66
2023-04-26T07:16:20.010Z,101110.72
2023-04-26T07:18:51.969Z,101113.50
2023-04-26T07:21:22.970Z,101097.72
2023-04-26T07:23:56.925Z,101113.50
2023-04-26T07:26:28.544Z,101109.19
2023-04-26T07:29:01.264Z,101088.97
2023-04-26T07:31:36.197Z,101099.16
2023-04-26T07:34:08.663Z,101081.47
2023-04-26T07:36:42.814Z,101098.69
2023-04-26T07:39:15.837Z,101111.75
2023-04-26T07:41:45.915Z,101110.53
2023-04-26T07:44:16.036Z,101088.59
2023-04-26T07:46:50.921Z,101107.19
2023-04-26T07:49:21.757Z,101113.78
2023-04-26T07:51:53.976Z,101104.25
2023-04-26T07:54:24.200Z,101107.81
2023-04-26T07:56:54.796Z,101114.41
2023-04-26T07:59:26.866Z,101112.81
2023-04-26T08:01:59.772Z,101116.63
2023-04-26T08:04:37.089Z,101106.13
2023-04-26T08:07:11.093Z,101100.69
2023-04-26T08:09:41.292Z,101099.19
2023-04-26T08:12:13.925Z,101104.53
2023-04-26T08:14:44.153Z,101109.63
2023-04-26T08:17:17.338Z,101099.41
2023-04-26T08:20:00.324Z,101110.28
2023-04-26T08:22:30.571Z,101105.16
2023-04-26T08:25:00.645Z,101108.25
2023-04-26T08:27:32.089Z,101105.47
2023-04-26T08:30:04.427Z,101100.69
2023-04-26T08:32:37.658Z,101100.41
2023-04-26T08:35:09.438Z,101097.53
2023-04-26T08:37:45.531Z,101101.75
2023-04-26T08:40:15.770Z,101109.09
2023-04-26T08:42:49.109Z,101107.84
2023-04-26T08:45:21.081Z,101117.38
2023-04-26T08:48:01.520Z,101116.25
2023-04-26T08:50:36.633Z,101105.63
2023-04-26T08:53:11.076Z,101105.56
2023-04-26T08:55:42.986Z,101098.03
2023-04-26T08:58:14.869Z,101115.81
2023-04-26T09:00:46.647Z,101112.53
2023-04-26T09:03:21.298Z,101080.91
2023-04-26T09:05:51.692Z,101104.53
2023-04-26T09:08:24.957Z,101104.97
2023-04-26T09:10:56.160Z,101098.66
2023-04-26T09:13:31.982Z,101112.41
2023-04-26T09:16:04.632Z,101096.09
2023-04-26T09:18:37.856Z,101098.59
2023-04-26T09:21:10.943Z,101110.25
2023-04-26T09:24:00.091Z,101105.13
2023-04-26T09:26:32.702Z,101113.19
2023-04-26T09:29:19.177Z,101109.81
2023-04-26T09:31:50.998Z,101104.69
2023-04-26T09:34:23.847Z,101105.78
2023-04-26T09:36:57.302Z,101102.94
2023-04-26T09:39:43.733Z,101103.94
2023-04-26T09:42:16.160Z,101102.72
2023-04-26T09:44:46.446Z,101083.28
2023-04-26T09:47:16.980Z,101100.44
2023-04-26T09:49:51.996Z,101102.34
2023-04-26T09:52:26.170Z,101115.69
2023-04-26T09:54:58.295Z,101119.94
2023-04-26T09:57:28.430Z,101116.13
2023-04-26T10:00:06.178Z,101118.84
2023-04-26T10:02:37.005Z,101109.94
2023-04-26T10:05:11.482Z,101122.06
2023-04-26T10:07:42.484Z,101120.66
2023-04-26T10:10:15.198Z,101108.84
2023-04-26T10:12:45.481Z,101078.31
2023-04-26T10:15:16.059Z,101118.72
2023-04-26T10:17:46.455Z,101110.09
2023-04-26T10:20:23.997Z,101109.53
2023-04-26T10:23:01.302Z,101102.03
2023-04-26T10:25:43.100Z,101100.84
2023-04-26T10:28:13.149Z,101097.44
2023-04-26T10:31:00.649Z,101098.78
2023-04-26T10:33:31.028Z,101105.25
2023-04-26T10:36:11.718Z,101099.03
2023-04-26T10:38:43.551Z,101098.88
2023-04-26T10:41:33.112Z,101107.03
2023-04-26T10:44:46.082Z,101098.72
2023-04-26T10:47:32.650Z,101093.84
2023-04-26T10:50:11.402Z,101104.34
2023-04-26T10:53:10.314Z,101093.66
2023-04-26T10:55:44.530Z,101092.81
2023-04-26T10:58:29.583Z,101094.56
2023-04-26T11:01:34.118Z,101089.72
2023-04-26T11:04:10.610Z,101095.19
2023-04-26T11:06:53.961Z,101085.00
2023-04-26T11:09:44.011Z,101090.09
2023-04-26T11:12:16.625Z,101093.13
2023-04-26T11:14:48.651Z,101094.16
2023-04-26T11:17:20.146Z,101085.53
2023-04-26T11:19:52.050Z,101093.06
2023-04-26T11:22:25.334Z,101091.91
2023-04-26T11:24:58.434Z,101099.34
2023-04-26T11:27:32.844Z,101096.09
2023-04-26T11:30:06.745Z,101100.25
2023-04-26T11:32:36.994Z,101085.94
2023-04-26T11:35:07.411Z,101064.41
2023-04-26T11:37:40.457Z,101058.66
2023-04-26T11:40:19.468Z,101079.94
2023-04-26T11:42:57.709Z,101073.16
2023-04-26T11:45:28.173Z,101051.47
2023-04-26T11:47:58.966Z,101076.38
2023-04-26T11:50:30.965Z,101078.31
2023-04-26T11:53:04.422Z,101079.91
2023-04-26T11:55:39.732Z,101070.91
2023-04-26T11:58:17.592Z,101076.25
2023-04-26T12:01:03.132Z,101085.41
2023-04-26T12:03:35.618Z,101074.44
2023-04-26T12:06:08.492Z,101084.69
2023-04-26T12:08:38.606Z,101092.13
2023-04-26T12:11:11.601Z,101081.81
2023-04-26T12:13:43.592Z,101089.91
2023-04-26T12:16:25.663Z,101091.28
2023-04-26T12:18:57.376Z,101082.44
2023-04-26T12:21:29.873Z,101085.38
2023-04-26T12:24:01.981Z,101089.25
2023-04-26T12:26:49.813Z,101092.53
2023-04-26T12:29:19.814Z,101089.28
2023-04-26T12:31:52.542Z,101091.59
2023-04-26T12:34:22.776Z,101080.66
2023-04-26T12:36:55.095Z,101081.50
2023-04-26T12:39:25.058Z,101096.47
2023-04-26T12:41:58.218Z,101093.16
2023-04-26T12:44:28.445Z,101094.66
2023-04-26T12:46:58.929Z,101088.28
2023-04-26T12:49:30.898Z,101094.66
2023-04-26T12:52:03.782Z,101083.56
2023-04-26T12:54:33.914Z,101097.66
2023-04-26T12:57:17.880Z,101099.19
2023-04-26T12:59:47.987Z,101099.38
2023-04-26T13:02:19.948Z,101102.59
2023-04-26T13:04:50.120Z,101099.50
2023-04-26T13:07:21.423Z,101094.88
2023-04-26T13:09:51.423Z,101106.34
2023-04-26T13:12:24.490Z,101098.16
2023-04-26T13:14:57.606Z,101087.50
2023-04-26T13:17:28.811Z,101103.09
2023-04-26T13:19:58.894Z,101095.31
2023-04-26T13:22:29.002Z,101092.63
2023-04-26T13:24:59.123Z,101101.47
2023-04-26T13:27:32.068Z,101100.72
2023-04-26T13:30:02.264Z,101101.31
2023-04-26T13:32:37.043Z,101104.09
2023-04-26T13:35:07.809Z,101109.03
2023-04-26T13:37:37.946Z,101111.22
2023-04-26T13:40:11.698Z,101095.63
2023-04-26T13:42:46.603Z,101106.66
2023-04-26T13:45:19.514Z,101110.09
2023-04-26T13:47:49.924Z,101106.69
2023-04-26T13:50:20.499Z,101115.00
2023-04-26T13:52:52.498Z,101101.97
2023-04-26T13:55:23.006Z,101092.78
2023-04-26T13:57:58.297Z,101113.25
2023-04-26T14:00:33.055Z,101111.22
2023-04-26T14:03:15.477Z,101117.91
2023-04-26T14:05:46.182Z,101127.84
2023-04-26T14:08:16.423Z,101123.53
2023-04-26T14:10:48.969Z,101115.25
2023-04-26T14:13:21.937Z,101127.50
2023-04-26T14:15:55.078Z,101114.44
2023-04-26T14:18:25.444Z,101124.22
2023-04-26T14:20:55.732Z,101126.47
2023-04-26T14:23:26.160Z,101113.69
2023-04-26T14:25:59.218Z,101116.38
2023-04-26T14:28:32.274Z,101108.63
2023-04-26T14:31:02.433Z,101115.31
2023-04-26T14:33:32.666Z,101116.22
2023-04-26T14:36:05.352Z,101114.44
2023-04-26T14:38:35.513Z,101110.72
2023-04-26T14:41:08.774Z,101116.09
2023-04-26T14:43:41.513Z,101114.47
2023-04-26T14:46:12.089Z,101112.53
2023-04-26T14:48:43.899Z,101111.03
2023-04-26T14:51:14.300Z,101105.09
2023-04-26T14:53:44.974Z,101118.28
2023-04-26T14:56:15.225Z,101109.06
2023-04-26T14:58:48.025Z,101092.75
2023-04-26T15:01:18.101Z,101123.72
2023-04-26T15:03:48.500Z,101116.75
2023-04-26T15:06:21.935Z,101123.81
2023-04-26T15:08:52.024Z,101119.06
2023-04-26T15:11:26.788Z,101118.00
2023-04-26T15:13:59.538Z,101125.44
2023-04-26T15:16:29.783Z,101116.69
2023-04-26T15:18:59.882Z,101116.56
2023-04-26T15:21:30.338Z,101125.28
2023-04-26T15:24:04.045Z,101117.59
2023-04-26T15:26:35.533Z,101127.34
2023-04-26T15:29:08.659Z,101122.09
2023-04-26T15:31:39.080Z,101116.34
2023-04-26T15:34:10.189Z,101122.22
2023-04-26T15:36:42.125Z,101130.53
2023-04-26T15:39:12.532Z,101127.59
2023-04-26T15:41:42.587Z,101126.97
2023-04-26T15:44:15.377Z,101117.75
2023-04-26T15:46:46.034Z,101132.28
2023-04-26T15:49:17.081Z,101128.44
2023-04-26T15:51:47.333Z,101124.75
2023-04-26T15:54:17.402Z,101098.66
2023-04-26T15:56:47.929Z,101134.53
2023-04-26T15:59:20.710Z,101132.16
2023-04-26T16:01:51.025Z,101134.16
2023-04-26T16:04:22.092Z,101137.44
2023-04-26T16:06:52.321Z,101133.28
2023-04-26T16:09:25.764Z,101139.97
2023-04-26T16:11:56.966Z,101137.75
2023-04-26T16:14:29.580Z,101137.94
2023-04-26T16:17:03.690Z,101138.50
2023-04-26T16:19:33.770Z,101139.50
2023-04-26T16:22:07.012Z,101136.41
2023-04-26T16:24:37.095Z,101128.09
2023-04-26T16:27:07.556Z,101128.28
2023-04-26T16:29:40.443Z,101136.81
2023-04-26T16:32:10.750Z,101116.44
2023-04-26T16:34:40.869Z,101118.59
2023-04-26T16:37:13.131Z,101132.22
2023-04-26T16:39:43.245Z,101142.56
2023-04-26T16:42:13.429Z,101140.44
2023-04-26T16:44:46.208Z,101140.72
2023-04-26T16:47:16.291Z,101142.00
2023-04-26T16:49:46.630Z,101141.81
2023-04-26T16:52:16.727Z,101140.75
2023-04-26T16:54:46.754Z,101137.44
2023-04-26T16:57:17.442Z,101142.41
2023-04-26T16:59:50.102Z,101147.13
2023-04-26T17:02:20.836Z,101146.66
2023-04-26T17:04:51.217Z,101137.94
2023-04-26T17:07:23.245Z,101147.44
2023-04-26T17:09:55.576Z,101144.44
2023-04-26T17:12:26.959Z,101146.50
2023-04-26T17:15:01.168Z,101150.94
2023-04-26T17:17:32.802Z,101154.03
2023-04-26T17:20:05.006Z,101153.22
2023-04-26T17:22:35.033Z,101151.69
2023-04-26T17:25:05.017Z,101156.63
2023-04-26T17:27:35.108Z,101152.41
2023-04-26T17:30:09.315Z,101150.84
2023-04-26T17:32:39.600Z,101148.34
2023-04-26T17:35:10.454Z,101155.31
2023-04-26T17:37:42.038Z,101154.66
2023-04-26T17:40:14.808Z,101157.28
2023-04-26T17:42:48.696Z,101163.75
2023-04-26T17:45:21.315Z,101161.38
2023-04-26T17:47:51.403Z,101154.91
2023-04-26T17:50:24.172Z,101162.44
2023-04-26T17:53:00.856Z,101156.22
2023-04-26T17:55:31.153Z,101164.88
2023-04-26T17:58:01.329Z,101161.63
2023-04-26T18:00:33.973Z,101166.09
2023-04-26T18:03:05.314Z,101167.72
2023-04-26T18:05:35.502Z,101171.13
2023-04-26T18:08:05.820Z,101173.69
2023-04-26T18:10:36.227Z,101162.66
2023-04-26T18:13:06.379Z,101180.34
2023-04-26T18:15:41.156Z,101145.16
2023-04-26T18:18:11.475Z,101179.28
2023-04-26T18:20:41.729Z,101184.16
2023-04-26T18:23:12.438Z,101174.16
2023-04-26T18:25:42.977Z,101181.84
2023-04-26T18:28:20.475Z,101184.19
2023-04-26T18:30:53.226Z,101185.56
2023-04-26T18:33:23.441Z,101190.44
2023-04-26T18:35:55.719Z,101192.63
2023-04-26T18:38:26.758Z,101189.22
2023-04-26T18:40:58.569Z,101202.00
2023-04-26T18:43:28.642Z,101198.28
2023-04-26T18:46:01.850Z,101200.63
2023-04-26T18:48:32.225Z,101186.78
2023-04-26T18:51:02.325Z,101205.03
2023-04-26T18:53:32.639Z,101197.69
2023-04-26T18:56:02.931Z,101203.50
2023-04-26T18:58:33.008Z,101206.53
2023-04-26T19:01:06.418Z,101210.88
2023-04-26T19:03:39.102Z,101208.03
2023-04-26T19:06:15.283Z,101213.44
2023-04-26T19:08:45.827Z,101212.38
2023-04-26T19:11:16.539Z,101218.97
2023-04-26T19:13:46.634Z,101215.94
2023-04-26T19:16:19.904Z,101209.47
2023-04-26T19:18:50.377Z,101224.31
2023-04-26T19:21:22.446Z,101227.88
2023-04-26T19:23:58.850Z,101228.41
2023-04-26T19:26:28.943Z,101232.69
2023-04-26T19:28:59.266Z,101233.44
2023-04-26T19:31:32.546Z,101236.81
2023-04-26T19:34:04.051Z,101235.94
2023-04-26T19:36:34.950Z,101234.66
2023-04-26T19:39:05.357Z,101233.59
2023-04-26T19:41:35.334Z,101234.47
2023-04-26T19:44:06.089Z,101241.59
2023-04-26T19:46:38.790Z,101236.59
2023-04-26T19:49:09.504Z,101221.59
2023-04-26T19:51:39.527Z,101238.56
2023-04-26T19:54:09.732Z,101237.50
2023-04-26T19:56:43.268Z,101236.03
2023-04-26T19:59:15.236Z,101236.22
2023-04-26T20:01:51.651Z,101237.13
2023-04-26T20:04:23.806Z,101235.50
2023-04-26T20:06:54.101Z,101235.16
2023-04-26T20:09:24.135Z,101239.78
2023-04-26T20:11:55.172Z,101247.31
2023-04-26T20:14:26.262Z,101240.16
2023-04-26T20:17:02.545Z,101238.88
2023-04-26T20:19:33.151Z,101230.44
2023-04-26T20:22:03.484Z,101248.91
2023-04-26T20:24:34.399Z,101244.09
2023-04-26T20:27:08.065Z,101244.47
2023-04-26T20:29:38.277Z,101246.81
2023-04-26T20:32:12.954Z,101246.63
2023-04-26T20:34:43.642Z,101246.13
2023-04-26T20:37:13.937Z,101241.34
2023-04-26T20:39:44.350Z,101241.91
2023-04-26T20:42:22.196Z,101242.78
2023-04-26T20:44:52.473Z,101236.03
2023-04-26T20:47:26.211Z,101238.56
2023-04-26T20:49:57.340Z,101236.53
2023-04-26T20:52:27.982Z,101236.91
2023-04-26T20:54:58.275Z,101245.34
2023-04-26T20:57:29.395Z,101245.34
2023-04-26T21:00:00.294Z,101249.66
2023-04-26T21:02:34.034Z,101239.25
2023-04-26T21:05:04.660Z,101249.44
2023-04-26T21:07:35.951Z,101240.00
2023-04-26T21:10:06.450Z,101244.28
2023-04-26T21:12:37.425Z,101250.34
2023-04-26T21:15:08.792Z,101243.38
2023-04-26T21:17:46.067Z,101247.50
2023-04-26T21:20:16.608Z,101224.63
2023-04-26T21:22:50.323Z,101243.41
2023-04-26T21:25:20.848Z,101250.94
2023-04-26T21:27:51.445Z,101250.00
2023-04-26T21:30:21.977Z,101250.72
2023-04-26T21:32:54.799Z,101253.22
2023-04-26T21:35:25.157Z,101243.22
2023-04-26T21:37:55.580Z,101253.06
2023-04-26T21:40:25.684Z,101251.25
2023-04-26T21:43:04.860Z,101256.84
2023-04-26T21:45:35.419Z,101258.81
2023-04-26T21:48:08.733Z,101261.00
2023-04-26T21:50:39.157Z,101244.38
2023-04-26T21:53:09.325Z,101254.91
2023-04-26T21:55:40.145Z,101261.56
2023-04-26T21:58:11.175Z,101264.25
2023-04-26T22:00:41.357Z,101266.56
2023-04-26T22:03:17.297Z,101263.34
2023-04-26T22:05:49.889Z,101258.34
2023-04-26T22:08:19.973Z,101260.88
2023-04-26T22:10:50.146Z,101265.16
2023-04-26T22:13:20.437Z,101252.28
2023-04-26T22:15:50.902Z,101263.56
2023-04-26T22:18:23.834Z,101253.41
2023-04-26T22:20:53.900Z,101272.69
2023-04-26T22:23:24.188Z,101273.59
2023-04-26T22:25:54.492Z,101271.28
2023-04-26T22:28:26.591Z,101278.78
2023-04-26T22:30:59.283Z,101280.03
2023-04-26T22:33:31.941Z,101272.16
2023-04-26T22:36:03.088Z,101275.22
2023-04-26T22:38:33.244Z,101276.28
2023-04-26T22:41:04.684Z,101261.63
2023-04-26T22:43:35.194Z,101280.94
2023-04-26T22:46:05.355Z,101277.19
2023-04-26T22:48:38.185Z,101279.88
2023-04-26T22:51:08.786Z,101284.34
2023-04-26T22:53:39.302Z,101274.34
2023-04-26T22:56:10.975Z,101280.59
2023-04-26T22:58:43.122Z,101280.41
2023-04-26T23:01:14.244Z,101268.81
2023-04-26T23:04:03.764Z,101287.22
2023-04-26T23:06:35.513Z,101282.41
2023-04-26T23:09:07.408Z,101290.28
2023-04-26T23:11:37.550Z,101287.03
2023-04-26T23:14:07.564Z,101288.47
2023-04-26T23:16:39.062Z,101301.16
2023-04-26T23:19:11.916Z,101298.66
2023-04-26T23:21:45.190Z,101299.38
2023-04-26T23:24:24.250Z,101302.06
2023-04-26T23:26:54.395Z,101309.22
2023-04-26T23:29:24.428Z,101298.31
2023-04-26T23:31:54.650Z,101297.22
2023-04-26T23:34:27.453Z,101287.75
2023-04-26T23:36:58.980Z,101296.34
2023-04-26T23:39:38.607Z,101312.78
2023-04-26T23:42:08.927Z,101316.19
2023-04-26T23:44:40.925Z,101307.09
2023-04-26T23:47:10.926Z,101307.25
2023-04-26T23:49:44.058Z,101305.81
2023-04-26T23:52:14.178Z,101300.28
2023-04-26T23:54:44.386Z,101310.66
2023-04-26T23:57:16.639Z,101314.25
2023-04-26T23:59:52.894Z,101308.00
